Time;durP1;ratioP1;P1;durP2;ratioP2;P2;SDS_P1;SDS_P2;PMS_P1;PMS_P2;Temp;Humidity;BMP_temperature;BMP_pressure;BME280_temperature;BME280_humidity;BME280_pressure;Samples;Min_cycle;Max_cycle;Signal;HPM_P1;HPM_P2
2023/01/20 00:01:47;;;;;;;13.77;7.40;;;-1.40;99.90;;;;;;5044435;28;20483;-74
2023/01/20 00:04:14;;;;;;;12.93;7.23;;;-1.40;99.90;;;;;;5038183;28;20111;-74
2023/01/20 00:06:39;;;;;;;16.23;6.78;;;-1.40;99.90;;;;;;5063789;28;20098;-74
2023/01/20 00:09:06;;;;;;;12.83;7.00;;;-1.40;99.90;;;;;;5055950;28;20044;-74
2023/01/20 00:11:32;;;;;;;16.02;7.53;;;-1.40;99.90;;;;;;5045139;28;20067;-74
2023/01/20 00:14:00;;;;;;;13.43;7.50;;;-1.40;99.90;;;;;;5062208;28;20115;-74
2023/01/20 00:16:26;;;;;;;18.42;8.20;;;-1.40;99.90;;;;;;5067514;28;20379;-74
2023/01/20 00:18:53;;;;;;;13.90;7.30;;;-1.40;99.90;;;;;;5044214;28;20090;-74
2023/01/20 00:21:19;;;;;;;14.98;7.68;;;-1.50;99.90;;;;;;5061752;28;20036;-74
2023/01/20 00:23:46;;;;;;;14.77;7.50;;;-1.50;99.90;;;;;;5042674;28;20040;-74
2023/01/20 00:26:15;;;;;;;17.13;7.75;;;-1.50;99.90;;;;;;5065100;28;20082;-74
2023/01/20 00:28:42;;;;;;;13.38;7.10;;;-1.60;99.90;;;;;;5040188;28;20389;-74
2023/01/20 00:31:25;;;;;;;13.38;8.00;;;-1.60;99.90;;;;;;5072233;28;20059;-74
2023/01/20 00:33:52;;;;;;;13.50;6.85;;;-1.60;99.90;;;;;;5038619;28;20448;-74
2023/01/20 00:36:19;;;;;;;10.25;6.60;;;-1.70;99.90;;;;;;5041513;28;20037;-74
2023/01/20 00:38:45;;;;;;;9.98;5.95;;;-1.70;99.90;;;;;;5060651;28;20107;-74
2023/01/20 00:41:11;;;;;;;11.13;6.03;;;-1.80;99.90;;;;;;5050156;28;20076;-74
2023/01/20 00:43:37;;;;;;;13.70;5.93;;;-1.80;99.90;;;;;;5051659;28;20052;-74
2023/01/20 00:46:04;;;;;;;11.23;5.70;;;-1.80;99.90;;;;;;5056953;28;20048;-73
2023/01/20 00:48:30;;;;;;;8.48;5.32;;;-1.80;99.90;;;;;;5031491;28;20045;-74
2023/01/20 00:50:56;;;;;;;8.53;4.83;;;-1.80;99.90;;;;;;5040783;28;20041;-74
2023/01/20 00:53:24;;;;;;;9.02;5.18;;;-1.80;99.90;;;;;;5064042;28;20066;-74
2023/01/20 00:55:50;;;;;;;9.32;4.90;;;-1.80;99.90;;;;;;5052339;28;20043;-74
2023/01/20 00:58:16;;;;;;;12.03;5.73;;;-1.80;99.90;;;;;;5047116;28;20037;-74
2023/01/20 01:00:42;;;;;;;11.55;4.95;;;-1.80;99.90;;;;;;5053700;28;20441;-74
2023/01/20 01:03:09;;;;;;;10.20;5.30;;;-1.80;99.90;;;;;;5056949;28;20131;-74
2023/01/20 01:05:35;;;;;;;9.50;5.60;;;-1.80;99.90;;;;;;5021452;28;20544;-74
2023/01/20 01:08:01;;;;;;;10.70;5.75;;;-1.90;99.90;;;;;;5049916;28;20116;-74
2023/01/20 01:10:27;;;;;;;9.70;5.63;;;-2.00;99.90;;;;;;5047775;28;20055;-74
2023/01/20 01:12:52;;;;;;;12.00;5.80;;;-2.00;99.90;;;;;;5066346;28;20047;-73
2023/01/20 01:15:18;;;;;;;10.90;5.10;;;-2.00;99.90;;;;;;5050280;28;20051;-73
2023/01/20 01:17:44;;;;;;;10.37;5.27;;;-2.00;99.90;;;;;;5039401;28;20048;-73
2023/01/20 01:20:11;;;;;;;9.48;4.68;;;-2.00;99.90;;;;;;5047159;28;20044;-73
2023/01/20 01:22:36;;;;;;;8.23;4.45;;;-2.00;99.90;;;;;;5052694;28;20120;-73
2023/01/20 01:25:02;;;;;;;8.97;3.97;;;-2.00;99.90;;;;;;5045607;28;20410;-73
2023/01/20 01:27:28;;;;;;;6.05;3.70;;;-2.00;99.90;;;;;;5065877;28;20040;-73
2023/01/20 01:29:54;;;;;;;8.40;3.97;;;-2.00;99.90;;;;;;5029084;28;20033;-73
2023/01/20 01:32:21;;;;;;;6.30;3.20;;;-2.00;99.90;;;;;;5044322;28;20036;-73
2023/01/20 01:34:46;;;;;;;8.20;3.35;;;-2.10;99.90;;;;;;5038993;28;20275;-73
2023/01/20 01:37:12;;;;;;;8.23;3.07;;;-2.00;99.90;;;;;;5064903;28;20044;-73
2023/01/20 01:39:38;;;;;;;5.57;3.00;;;-2.10;99.90;;;;;;5061748;28;20040;-73
2023/01/20 01:42:13;;;;;;;4.80;2.80;;;-2.10;99.90;;;;;;5060120;28;20344;-73
2023/01/20 01:45:11;;;;;;;5.15;2.78;;;-2.10;99.90;;;;;;5031266;28;20045;-74
2023/01/20 01:47:58;;;;;;;5.00;2.17;;;-2.20;99.90;;;;;;5040145;28;20124;-74
2023/01/20 01:50:34;;;;;;;6.70;2.75;;;-2.20;99.90;;;;;;5038813;28;20041;-74
2023/01/20 01:53:00;;;;;;;4.70;2.03;;;-2.20;99.90;;;;;;5053536;28;20044;-74
2023/01/20 01:55:29;;;;;;;5.60;2.40;;;-2.30;99.90;;;;;;5039807;28;20516;-74
2023/01/20 01:57:57;;;;;;;3.80;2.00;;;-2.30;99.90;;;;;;5059173;28;20116;-74
2023/01/20 02:00:22;;;;;;;5.82;2.25;;;-2.30;99.90;;;;;;5060082;28;20056;-74
2023/01/20 02:02:49;;;;;;;6.67;2.67;;;-2.30;99.90;;;;;;5041649;28;20413;-73
2023/01/20 02:05:16;;;;;;;6.38;2.67;;;-2.30;99.90;;;;;;5041062;28;20512;-73
2023/01/20 02:07:45;;;;;;;3.60;2.28;;;-2.40;99.90;;;;;;5050146;28;20531;-73
2023/01/20 02:10:12;;;;;;;7.85;2.30;;;-2.40;99.90;;;;;;5033499;28;20049;-73
2023/01/20 02:12:39;;;;;;;6.43;2.72;;;-2.40;99.90;;;;;;5062239;28;20055;-73
2023/01/20 02:15:05;;;;;;;4.90;2.30;;;-2.40;99.90;;;;;;5065474;28;20044;-73
2023/01/20 02:17:45;;;;;;;7.97;2.13;;;-2.40;99.90;;;;;;5033031;28;20052;-73
2023/01/20 02:20:33;;;;;;;4.20;2.22;;;-2.40;99.90;;;;;;5056237;28;20087;-73
2023/01/20 02:23:17;;;;;;;6.45;3.00;;;-2.40;99.90;;;;;;5055519;28;20052;-73
2023/01/20 02:26:09;;;;;;;5.78;2.78;;;-2.30;99.90;;;;;;5061866;28;20044;-73
2023/01/20 02:29:05;;;;;;;5.97;3.20;;;-2.30;99.90;;;;;;5057616;28;20084;-73
2023/01/20 02:32:02;;;;;;;10.00;3.42;;;-2.30;99.90;;;;;;5058904;28;20067;-73
2023/01/20 02:34:57;;;;;;;5.10;3.10;;;-2.30;99.90;;;;;;5039848;28;20465;-73
2023/01/20 02:37:41;;;;;;;9.57;3.80;;;-2.20;99.90;;;;;;5059684;28;20052;-73
2023/01/20 02:40:19;;;;;;;7.20;4.10;;;-1.90;99.90;;;;;;5056743;28;20526;-73
2023/01/20 02:42:57;;;;;;;8.43;4.50;;;-1.90;99.90;;;;;;5060797;28;20044;-73
2023/01/20 02:45:32;;;;;;;8.27;4.60;;;-2.00;99.90;;;;;;5063185;28;20044;-73
2023/01/20 02:48:18;;;;;;;9.25;4.68;;;-2.10;99.90;;;;;;5038034;28;20448;-73
2023/01/20 02:50:50;;;;;;;12.10;4.72;;;-2.20;99.90;;;;;;5059705;28;20633;-73
2023/01/20 02:53:17;;;;;;;11.07;5.10;;;-2.20;99.90;;;;;;5055014;28;20231;-73
2023/01/20 02:55:48;;;;;;;9.10;5.10;;;-2.20;99.90;;;;;;5070048;28;20048;-73
2023/01/20 02:58:24;;;;;;;11.55;5.47;;;-2.20;99.90;;;;;;5065149;28;20040;-73
2023/01/20 03:01:01;;;;;;;10.57;5.78;;;-2.20;99.90;;;;;;5058336;28;20070;-73
2023/01/20 03:03:33;;;;;;;12.50;6.03;;;-2.30;99.90;;;;;;5065295;28;20067;-73
2023/01/20 03:06:02;;;;;;;11.02;5.47;;;-2.30;99.90;;;;;;5047793;28;20132;-73
2023/01/20 03:08:31;;;;;;;11.82;5.63;;;-2.30;99.90;;;;;;5039294;28;20041;-73
2023/01/20 03:11:02;;;;;;;15.70;5.90;;;-2.30;99.90;;;;;;5054355;28;20051;-73
2023/01/20 03:13:40;;;;;;;11.43;5.20;;;-2.30;99.90;;;;;;5065077;28;20111;-73
2023/01/20 03:16:13;;;;;;;11.27;5.60;;;-2.30;99.90;;;;;;5065667;28;20543;-73
2023/01/20 03:18:39;;;;;;;12.00;5.93;;;-2.30;99.90;;;;;;5064903;28;20036;-73
2023/01/20 03:21:07;;;;;;;12.32;6.30;;;-2.30;99.90;;;;;;5059173;28;20502;-73
2023/01/20 03:23:35;;;;;;;14.13;7.32;;;-2.30;99.90;;;;;;5055747;28;20044;-73
2023/01/20 03:26:07;;;;;;;11.65;6.90;;;-2.30;99.90;;;;;;5047540;28;20048;-73
2023/01/20 03:28:33;;;;;;;14.60;6.97;;;-2.20;99.90;;;;;;5039326;28;20036;-73
2023/01/20 03:31:00;;;;;;;15.13;7.87;;;-2.20;99.90;;;;;;5064217;28;20106;-73
2023/01/20 03:33:26;;;;;;;13.63;7.82;;;-2.30;99.90;;;;;;5041030;28;20106;-73
2023/01/20 03:35:53;;;;;;;17.87;9.60;;;-2.30;99.90;;;;;;5030144;28;20040;-73
2023/01/20 03:38:20;;;;;;;19.15;10.07;;;-2.30;99.90;;;;;;5058967;28;20048;-74
2023/01/20 03:41:16;;;;;;;18.55;9.63;;;-2.30;99.90;;;;;;5057466;28;20094;-73
2023/01/20 03:44:01;;;;;;;21.45;11.32;;;-2.20;99.90;;;;;;5067687;28;20105;-73
2023/01/20 03:46:38;;;;;;;23.98;11.95;;;-2.20;99.90;;;;;;5041452;28;20044;-73
2023/01/20 03:49:25;;;;;;;26.92;12.20;;;-2.20;99.90;;;;;;5063243;28;20036;-73
2023/01/20 03:52:12;;;;;;;25.77;12.82;;;-2.20;99.90;;;;;;5058989;28;20174;-73
2023/01/20 03:55:09;;;;;;;26.58;13.52;;;-2.20;99.90;;;;;;5068861;28;20045;-73
2023/01/20 03:57:41;;;;;;;30.85;14.18;;;-2.10;99.90;;;;;;5060593;28;20143;-73
2023/01/20 04:00:09;;;;;;;28.55;13.82;;;-2.10;99.90;;;;;;5067093;28;20032;-73
2023/01/20 04:02:36;;;;;;;32.75;14.48;;;-2.10;99.90;;;;;;5049248;28;20094;-73
2023/01/20 04:05:04;;;;;;;33.67;14.77;;;-2.10;99.90;;;;;;5068582;28;20056;-73
2023/01/20 04:07:30;;;;;;;30.38;14.57;;;-2.10;99.90;;;;;;5064570;28;20068;-73
2023/01/20 04:10:04;;;;;;;31.90;15.05;;;-2.10;99.90;;;;;;5062375;28;20589;-73
2023/01/20 04:12:30;;;;;;;30.08;14.70;;;-2.10;99.90;;;;;;5045375;28;20056;-73
2023/01/20 04:14:56;;;;;;;32.53;15.23;;;-2.00;99.90;;;;;;5043419;28;20040;-73
2023/01/20 04:17:26;;;;;;;35.97;16.23;;;-2.00;99.90;;;;;;5067313;28;20121;-73
2023/01/20 04:19:53;;;;;;;31.40;14.75;;;-2.00;99.90;;;;;;5067494;28;20044;-74
2023/01/20 04:22:28;;;;;;;36.55;15.63;;;-1.90;99.90;;;;;;5066529;28;20106;-74
2023/01/20 04:25:17;;;;;;;29.55;14.30;;;-1.90;99.90;;;;;;5065366;28;20040;-73
2023/01/20 04:27:42;;;;;;;37.30;14.70;;;-1.90;99.90;;;;;;5053747;28;20091;-73
2023/01/20 04:30:09;;;;;;;31.13;14.80;;;-1.90;99.90;;;;;;5036897;28;20929;-74
2023/01/20 04:32:35;;;;;;;34.03;15.82;;;-1.90;99.90;;;;;;5066903;28;20124;-73
2023/01/20 04:35:00;;;;;;;36.50;15.47;;;-1.90;99.90;;;;;;5057775;28;20127;-73
2023/01/20 04:37:26;;;;;;;37.53;16.13;;;-1.90;99.90;;;;;;5066434;28;20620;-73
2023/01/20 04:39:52;;;;;;;35.00;16.67;;;-1.90;99.90;;;;;;5050769;28;20059;-73
2023/01/20 04:42:18;;;;;;;35.50;15.88;;;-1.90;99.90;;;;;;5046298;28;20111;-73
2023/01/20 04:44:44;;;;;;;41.23;16.87;;;-1.90;99.90;;;;;;5061439;28;20530;-73
2023/01/20 04:47:09;;;;;;;38.37;18.63;;;-1.90;99.90;;;;;;5061955;28;20098;-73
2023/01/20 04:49:35;;;;;;;38.40;16.57;;;-1.90;99.90;;;;;;5066800;28;20287;-73
2023/01/20 04:52:01;;;;;;;42.47;19.57;;;-2.00;99.90;;;;;;5057732;28;20127;-73
2023/01/20 04:54:26;;;;;;;38.80;16.83;;;-2.00;99.90;;;;;;5046438;28;20551;-73
2023/01/20 04:56:52;;;;;;;42.93;16.43;;;-2.00;99.90;;;;;;5030643;28;20041;-73
2023/01/20 04:59:18;;;;;;;43.57;17.63;;;-2.10;99.90;;;;;;5043695;28;20073;-73
2023/01/20 05:01:43;;;;;;;43.90;18.03;;;-2.10;99.90;;;;;;5041758;28;20048;-73
2023/01/20 05:04:09;;;;;;;38.30;18.07;;;-2.10;99.90;;;;;;5049705;28;20449;-73
2023/01/20 05:06:35;;;;;;;40.73;17.80;;;-2.10;99.90;;;;;;5066052;28;20065;-73
2023/01/20 05:09:01;;;;;;;40.37;17.20;;;-2.10;99.90;;;;;;5043245;28;20591;-73
2023/01/20 05:11:26;;;;;;;42.50;18.33;;;-2.10;99.90;;;;;;5049008;28;20209;-73
2023/01/20 05:13:52;;;;;;;45.27;18.13;;;-2.10;99.90;;;;;;5058168;28;20103;-73
2023/01/20 05:16:22;;;;;;;40.63;17.53;;;-2.10;99.90;;;;;;5061854;28;20044;-73
2023/01/20 05:18:48;;;;;;;40.75;17.55;;;-2.20;99.90;;;;;;5032514;28;20090;-73
2023/01/20 05:21:14;;;;;;;48.72;18.67;;;-2.20;99.90;;;;;;5068646;28;20265;-73
2023/01/20 05:23:40;;;;;;;46.30;19.03;;;-2.10;99.90;;;;;;5060789;28;20132;-73
2023/01/20 05:26:06;;;;;;;56.97;19.67;;;-2.10;99.90;;;;;;5047777;28;20044;-73
2023/01/20 05:28:31;;;;;;;86.57;22.73;;;-2.00;99.90;;;;;;5033301;28;20059;-73
2023/01/20 05:30:57;;;;;;;127.30;24.93;;;-1.90;99.90;;;;;;5046532;28;20048;-73
2023/01/20 05:33:23;;;;;;;161.30;28.83;;;-1.80;99.90;;;;;;5045437;28;20043;-73
2023/01/20 05:35:48;;;;;;;178.77;29.40;;;-1.70;99.90;;;;;;5053457;28;20040;-73
2023/01/20 05:38:14;;;;;;;153.97;26.80;;;-1.70;99.90;;;;;;5048990;28;20137;-73
2023/01/20 05:40:40;;;;;;;197.93;30.63;;;-1.60;99.90;;;;;;5047883;28;20097;-73
2023/01/20 05:43:05;;;;;;;143.63;26.50;;;-1.50;99.90;;;;;;5031347;28;20051;-73
2023/01/20 05:45:31;;;;;;;162.67;29.97;;;-1.40;99.90;;;;;;5065324;28;20152;-73
2023/01/20 05:47:58;;;;;;;130.15;26.25;;;-1.40;99.90;;;;;;5067294;28;20063;-73
2023/01/20 05:50:26;;;;;;;121.03;26.85;;;-1.30;99.90;;;;;;5064417;28;20049;-73
2023/01/20 05:52:51;;;;;;;124.20;25.73;;;-1.30;99.90;;;;;;5060383;28;20559;-73
2023/01/20 05:55:17;;;;;;;105.67;25.40;;;-1.20;99.90;;;;;;5062827;28;20049;-73
2023/01/20 05:57:43;;;;;;;160.05;31.02;;;-1.20;99.90;;;;;;5063517;28;20093;-73
2023/01/20 06:00:10;;;;;;;169.83;31.40;;;-1.20;99.90;;;;;;5047414;28;20072;-72
2023/01/20 06:02:35;;;;;;;132.73;29.13;;;-1.20;99.90;;;;;;5043150;28;20494;-73
2023/01/20 06:05:01;;;;;;;108.67;25.97;;;-1.20;99.90;;;;;;5063483;28;20075;-73
2023/01/20 06:07:30;;;;;;;127.93;28.93;;;-1.10;99.90;;;;;;5065288;28;20416;-73
2023/01/20 06:09:57;;;;;;;108.63;28.17;;;-1.10;99.90;;;;;;5066688;28;20408;-73
2023/01/20 06:12:23;;;;;;;103.45;27.23;;;-1.10;99.90;;;;;;5065049;28;20131;-73
2023/01/20 06:14:49;;;;;;;115.68;27.17;;;-1.10;99.90;;;;;;5066643;28;20037;-73
2023/01/20 06:17:16;;;;;;;106.00;28.48;;;-1.10;99.90;;;;;;5064933;28;20086;-73
2023/01/20 06:19:41;;;;;;;105.13;28.08;;;-1.10;99.90;;;;;;5064863;28;20511;-73
2023/01/20 06:22:13;;;;;;;105.83;27.57;;;-1.10;99.90;;;;;;5062681;28;20040;-73
2023/01/20 06:24:39;;;;;;;120.75;29.90;;;-1.10;99.90;;;;;;5050957;28;20072;-73
2023/01/20 06:27:05;;;;;;;115.20;30.47;;;-1.10;99.90;;;;;;5047197;28;20505;-73
2023/01/20 06:29:30;;;;;;;114.73;31.00;;;-1.00;99.90;;;;;;5068434;28;20040;-73
2023/01/20 06:31:56;;;;;;;125.70;30.83;;;-1.00;99.90;;;;;;5065249;28;20155;-73
2023/01/20 06:34:22;;;;;;;117.10;31.00;;;-1.00;99.90;;;;;;5067034;28;20485;-73
2023/01/20 06:36:47;;;;;;;121.27;33.60;;;-1.00;99.90;;;;;;5068859;28;20047;-73
2023/01/20 06:39:13;;;;;;;119.50;31.67;;;-1.00;99.90;;;;;;5050454;28;20133;-73
2023/01/20 06:41:39;;;;;;;143.50;34.47;;;-1.00;99.90;;;;;;5061155;28;20045;-73
2023/01/20 06:44:04;;;;;;;127.20;34.67;;;-1.00;99.90;;;;;;5065037;28;20052;-73
2023/01/20 06:46:30;;;;;;;133.60;33.83;;;-0.90;99.90;;;;;;5062404;28;20086;-73
2023/01/20 06:48:59;;;;;;;122.93;33.13;;;-0.90;99.90;;;;;;5055632;28;20461;-73
2023/01/20 06:51:26;;;;;;;119.25;34.30;;;-0.90;99.90;;;;;;5060754;28;20048;-73
2023/01/20 06:53:53;;;;;;;116.03;33.83;;;-0.90;99.90;;;;;;5064118;28;20071;-73
2023/01/20 06:56:19;;;;;;;134.18;36.90;;;-0.90;99.90;;;;;;5063145;28;20041;-73
2023/01/20 06:58:45;;;;;;;134.48;37.17;;;-0.80;99.90;;;;;;5064997;28;20157;-73
2023/01/20 07:01:11;;;;;;;133.50;35.60;;;-0.80;99.90;;;;;;5032648;28;20076;-74
2023/01/20 07:03:37;;;;;;;141.55;37.75;;;-0.80;99.90;;;;;;5044554;28;20509;-73
2023/01/20 07:06:12;;;;;;;122.73;38.13;;;-0.80;99.90;;;;;;5039900;28;20123;-73
2023/01/20 07:08:38;;;;;;;124.00;35.93;;;-0.80;99.90;;;;;;5069027;28;20040;-73
2023/01/20 07:11:04;;;;;;;134.10;37.87;;;-0.80;99.90;;;;;;5037314;28;20037;-73
2023/01/20 07:13:29;;;;;;;133.93;37.73;;;-0.80;99.90;;;;;;5028781;28;20464;-73
2023/01/20 07:15:55;;;;;;;134.70;41.73;;;-0.80;99.90;;;;;;5069297;28;20044;-73
2023/01/20 07:18:20;;;;;;;121.03;36.77;;;-0.80;99.90;;;;;;5062150;28;20705;-73
2023/01/20 07:20:46;;;;;;;138.30;39.70;;;-0.80;99.90;;;;;;5047581;28;20044;-72
2023/01/20 07:23:12;;;;;;;137.27;38.63;;;-0.70;99.90;;;;;;5045025;28;20409;-72
2023/01/20 07:25:38;;;;;;;119.23;36.90;;;-0.70;99.90;;;;;;5031631;28;20103;-72
2023/01/20 07:28:04;;;;;;;136.50;37.07;;;-0.70;99.90;;;;;;5062467;28;20044;-72
2023/01/20 07:30:30;;;;;;;117.60;36.60;;;-0.70;99.90;;;;;;5064554;28;20041;-72
2023/01/20 07:32:55;;;;;;;133.90;39.27;;;-0.70;99.90;;;;;;5053166;28;20037;-73
2023/01/20 07:35:21;;;;;;;139.13;38.80;;;-0.70;99.90;;;;;;5049636;28;20517;-73
2023/01/20 07:37:47;;;;;;;123.77;37.67;;;-0.70;99.90;;;;;;5069596;28;20044;-72
2023/01/20 07:40:12;;;;;;;124.10;36.70;;;-0.70;99.90;;;;;;5034648;28;20551;-72
2023/01/20 07:42:38;;;;;;;125.33;35.83;;;-0.70;99.90;;;;;;5071241;28;20048;-72
2023/01/20 07:45:04;;;;;;;108.37;33.97;;;-0.70;99.90;;;;;;5059069;28;20163;-72
2023/01/20 07:47:31;;;;;;;126.13;37.33;;;-0.60;99.90;;;;;;5042312;28;20037;-72
2023/01/20 07:49:56;;;;;;;122.30;37.10;;;-0.60;99.90;;;;;;5050610;28;20199;-72
2023/01/20 07:52:22;;;;;;;120.53;37.50;;;-0.60;99.90;;;;;;5061343;28;20062;-72
2023/01/20 07:54:48;;;;;;;126.73;37.20;;;-0.60;99.90;;;;;;5070704;28;20040;-72
2023/01/20 07:57:13;;;;;;;116.13;36.13;;;-0.60;99.90;;;;;;5067485;28;20037;-72
2023/01/20 07:59:39;;;;;;;126.67;36.87;;;-0.50;99.90;;;;;;5069398;28;20056;-72
2023/01/20 08:02:05;;;;;;;124.70;37.73;;;-0.50;99.90;;;;;;5069823;28;20052;-72
2023/01/20 08:04:32;;;;;;;119.97;35.90;;;-0.50;99.90;;;;;;5053291;28;20056;-72
2023/01/20 08:06:58;;;;;;;113.47;36.75;;;-0.50;99.90;;;;;;5066284;28;20045;-72
2023/01/20 08:09:23;;;;;;;124.37;36.60;;;-0.50;99.90;;;;;;5048856;28;20393;-72
2023/01/20 08:11:49;;;;;;;123.10;35.83;;;-0.50;99.90;;;;;;5040314;28;20041;-72
2023/01/20 08:14:15;;;;;;;123.67;36.33;;;-0.50;99.90;;;;;;5030537;28;20044;-72
2023/01/20 08:16:41;;;;;;;121.60;37.23;;;-0.50;99.90;;;;;;5067114;28;20071;-73
2023/01/20 08:19:06;;;;;;;120.63;37.03;;;-0.50;99.90;;;;;;5030135;28;20099;-73
2023/01/20 08:21:32;;;;;;;122.00;36.80;;;-0.50;99.90;;;;;;5046901;28;20047;-72
2023/01/20 08:24:00;;;;;;;121.03;35.20;;;-0.50;99.90;;;;;;5058792;28;20455;-71
2023/01/20 08:26:29;;;;;;;120.32;37.45;;;-0.50;99.90;;;;;;5043225;28;20040;-72
2023/01/20 08:29:00;;;;;;;119.50;37.72;;;-0.50;99.90;;;;;;5049535;28;20545;-72
2023/01/20 08:31:26;;;;;;;115.25;37.05;;;-0.50;99.90;;;;;;5051139;28;20052;-72
2023/01/20 08:33:54;;;;;;;118.37;36.03;;;-0.50;99.90;;;;;;5052832;28;20038;-73
2023/01/20 08:36:27;;;;;;;109.90;34.50;;;-0.40;99.90;;;;;;5049906;28;20064;-72
2023/01/20 08:38:55;;;;;;;108.85;37.45;;;-0.40;99.90;;;;;;5049124;28;20045;-72
2023/01/20 08:41:26;;;;;;;113.88;35.40;;;-0.40;99.90;;;;;;5047135;28;20080;-72
2023/01/20 08:43:52;;;;;;;115.85;36.75;;;-0.40;99.90;;;;;;5049243;28;20036;-72
2023/01/20 08:46:20;;;;;;;111.63;35.92;;;-0.40;99.90;;;;;;5032376;28;20039;-72
2023/01/20 08:48:47;;;;;;;111.55;36.13;;;-0.40;99.90;;;;;;5033608;28;20556;-72
2023/01/20 08:51:15;;;;;;;119.47;35.65;;;-0.40;99.90;;;;;;5049266;28;20041;-72
2023/01/20 08:53:41;;;;;;;118.53;35.10;;;-0.30;99.90;;;;;;5040577;28;20132;-73
2023/01/20 08:56:08;;;;;;;118.27;35.50;;;-0.30;99.90;;;;;;5018717;28;20331;-72
2023/01/20 08:58:34;;;;;;;108.20;34.03;;;-0.30;99.90;;;;;;5045677;28;20545;-72
2023/01/20 09:01:00;;;;;;;124.90;38.10;;;-0.30;99.90;;;;;;5033096;28;20128;-72
2023/01/20 09:03:26;;;;;;;112.20;34.57;;;-0.30;99.90;;;;;;5033498;28;20047;-71
2023/01/20 09:05:52;;;;;;;102.72;33.47;;;-0.30;99.90;;;;;;5031567;28;20528;-71
2023/01/20 09:08:19;;;;;;;116.22;34.67;;;-0.20;99.90;;;;;;5053845;28;20131;-72
2023/01/20 09:10:44;;;;;;;113.60;36.03;;;-0.20;99.90;;;;;;5036245;28;20160;-73
2023/01/20 09:13:10;;;;;;;99.93;32.17;;;-0.20;99.90;;;;;;5050065;28;20479;-72
2023/01/20 09:15:36;;;;;;;111.67;33.83;;;-0.20;99.90;;;;;;5032816;28;20093;-72
2023/01/20 09:18:01;;;;;;;104.97;33.40;;;-0.20;99.90;;;;;;5049867;28;20412;-72
2023/01/20 09:20:30;;;;;;;113.07;33.47;;;-0.10;99.90;;;;;;5034408;28;20296;-72
2023/01/20 09:23:00;;;;;;;114.05;33.13;;;-0.10;99.90;;;;;;5037907;28;20104;-72
2023/01/20 09:25:26;;;;;;;97.93;30.08;;;-0.10;99.90;;;;;;5046639;28;20335;-72
2023/01/20 09:27:51;;;;;;;111.20;33.67;;;-0.10;99.90;;;;;;5050359;28;20048;-72
2023/01/20 09:30:17;;;;;;;105.23;31.53;;;-0.10;99.90;;;;;;5047542;28;20045;-72
2023/01/20 09:32:43;;;;;;;96.30;32.67;;;-0.10;99.90;;;;;;5034084;28;20520;-72
2023/01/20 09:35:09;;;;;;;90.43;28.90;;;-0.10;99.90;;;;;;5036815;28;20697;-72
2023/01/20 09:46:21;;;;;;;90.93;28.38;;;0.00;99.90;;;;;;5050826;28;20072;-72
2023/01/20 09:55:14;;;;;;;95.18;29.50;;;0.10;99.90;;;;;;5052996;28;20116;-72
2023/01/20 09:57:47;;;;;;;92.70;30.88;;;0.10;99.90;;;;;;5037941;28;20041;-72
2023/01/20 10:00:22;;;;;;;96.80;29.67;;;0.10;99.90;;;;;;5044067;28;20036;-72
2023/01/20 10:02:55;;;;;;;88.47;28.70;;;0.20;99.90;;;;;;5052527;28;20401;-72
2023/01/20 10:05:31;;;;;;;91.30;29.50;;;0.20;99.90;;;;;;5038398;28;20561;-73
2023/01/20 10:08:15;;;;;;;91.00;29.95;;;0.30;99.90;;;;;;5039288;28;20102;-71
2023/01/20 10:11:03;;;;;;;80.95;28.95;;;0.30;99.90;;;;;;5058461;28;20051;-72
2023/01/20 10:13:29;;;;;;;87.75;29.05;;;0.40;99.90;;;;;;5055788;28;20079;-72
2023/01/20 10:15:56;;;;;;;84.70;28.90;;;0.40;99.90;;;;;;5056189;28;20041;-72
2023/01/20 10:18:36;;;;;;;88.60;29.05;;;0.40;99.90;;;;;;5020303;28;20034;-72
2023/01/20 10:21:16;;;;;;;84.53;28.85;;;0.50;99.90;;;;;;5054667;28;20045;-71
2023/01/20 10:23:51;;;;;;;83.75;29.17;;;0.50;99.90;;;;;;5058937;28;20047;-71
2023/01/20 10:26:27;;;;;;;76.72;27.70;;;0.50;99.90;;;;;;5038691;28;20103;-71
2023/01/20 10:29:01;;;;;;;76.07;28.90;;;0.60;99.90;;;;;;5054888;28;20246;-71
2023/01/20 10:31:32;;;;;;;80.53;26.98;;;0.60;99.90;;;;;;5034747;28;20045;-71
2023/01/20 10:34:07;;;;;;;78.63;27.90;;;0.60;99.90;;;;;;5052570;28;20057;-71
2023/01/20 10:36:33;;;;;;;79.57;28.80;;;0.60;99.90;;;;;;5034600;28;20132;-71
2023/01/20 10:39:22;;;;;;;73.57;26.83;;;0.60;99.90;;;;;;5048839;28;20082;-71
2023/01/20 10:41:59;;;;;;;72.13;26.70;;;0.60;99.90;;;;;;5051955;28;20173;-71
2023/01/20 10:44:25;;;;;;;68.60;26.85;;;0.60;99.90;;;;;;5057653;28;20052;-71
2023/01/20 10:47:11;;;;;;;75.47;26.80;;;0.60;99.90;;;;;;5053369;28;20052;-71
2023/01/20 10:49:36;;;;;;;;;;;0.60;99.90;;;;;;5038396;28;20041;-72
2023/01/20 10:52:39;;;;;;;67.93;25.77;;;0.60;99.90;;;;;;5054105;28;19924;-72
2023/01/20 10:55:34;;;;;;;69.13;24.90;;;0.60;99.90;;;;;;5050233;28;20033;-72
2023/01/20 10:58:17;;;;;;;73.97;27.75;;;0.60;99.90;;;;;;5060698;28;20037;-72
2023/01/20 11:00:43;;;;;;;64.38;23.90;;;0.60;99.90;;;;;;5052757;28;20047;-72
2023/01/20 11:03:14;;;;;;;67.72;25.67;;;0.70;99.90;;;;;;5054115;28;20041;-72
2023/01/20 11:05:41;;;;;;;67.60;24.73;;;0.70;99.90;;;;;;5051717;28;20099;-71
2023/01/20 11:08:22;;;;;;;67.22;25.52;;;0.80;99.90;;;;;;5037997;28;20084;-71
2023/01/20 11:10:55;;;;;;;67.45;25.73;;;0.80;99.90;;;;;;5055721;28;20049;-71
2023/01/20 11:13:21;;;;;;;67.95;25.27;;;0.80;99.90;;;;;;5040853;28;20037;-71
2023/01/20 11:15:49;;;;;;;68.27;24.83;;;0.90;99.90;;;;;;5059785;28;20051;-71
2023/01/20 11:18:15;;;;;;;68.75;25.45;;;0.90;99.90;;;;;;5068831;28;20041;-71
2023/01/20 11:20:51;;;;;;;61.37;24.30;;;0.90;99.90;;;;;;5062118;28;20053;-71
2023/01/20 11:23:56;;;;;;;64.65;25.70;;;0.90;99.90;;;;;;5059570;28;20417;-71
2023/01/20 11:26:32;;;;;;;61.40;24.58;;;0.90;99.90;;;;;;5060874;28;20128;-71
2023/01/20 11:29:02;;;;;;;61.72;24.00;;;0.90;99.90;;;;;;5059713;28;20049;-72
2023/01/20 11:31:39;;;;;;;59.03;23.67;;;0.90;99.90;;;;;;5059019;28;20045;-71
2023/01/20 11:34:27;;;;;;;63.90;24.38;;;0.90;99.90;;;;;;5062002;28;20044;-71
2023/01/20 11:37:05;;;;;;;62.70;24.77;;;0.90;99.90;;;;;;5061004;28;20037;-71
2023/01/20 11:39:36;;;;;;;60.72;25.08;;;1.00;99.90;;;;;;5066347;28;20096;-71
2023/01/20 11:42:22;;;;;;;61.63;22.77;;;0.90;99.90;;;;;;5054626;28;20057;-71
2023/01/20 11:44:51;;;;;;;63.05;23.92;;;1.00;99.90;;;;;;5052113;28;20037;-71
2023/01/20 11:47:36;;;;;;;61.45;25.65;;;1.00;99.90;;;;;;5055465;28;20135;-71
2023/01/20 11:50:07;;;;;;;60.95;24.05;;;1.00;99.90;;;;;;5041334;28;20114;-71
2023/01/20 11:52:34;;;;;;;60.50;23.38;;;1.00;99.90;;;;;;5037554;28;20102;-71
2023/01/20 11:55:12;;;;;;;57.38;23.75;;;1.00;99.90;;;;;;5035260;28;20096;-71
2023/01/20 11:57:43;;;;;;;54.70;22.48;;;1.00;99.90;;;;;;5050943;28;20114;-71
2023/01/20 12:00:29;;;;;;;53.35;21.77;;;1.00;99.90;;;;;;5053345;28;20075;-71
2023/01/20 12:03:08;;;;;;;62.33;23.23;;;1.00;99.90;;;;;;5070089;28;20045;-71
2023/01/20 12:05:47;;;;;;;53.72;23.35;;;1.00;99.90;;;;;;5036038;28;20172;-71
2023/01/20 12:08:22;;;;;;;52.45;22.13;;;1.00;99.90;;;;;;5054369;28;20052;-71
2023/01/20 12:10:49;;;;;;;53.72;22.17;;;1.00;99.90;;;;;;5054078;28;20052;-71
2023/01/20 12:13:20;;;;;;;59.88;22.33;;;1.00;99.90;;;;;;5068345;28;20098;-71
2023/01/20 12:16:00;;;;;;;54.95;22.38;;;1.10;99.90;;;;;;5035003;28;20131;-71
2023/01/20 12:18:46;;;;;;;53.10;20.70;;;1.00;99.90;;;;;;5055542;28;20037;-71
2023/01/20 12:21:17;;;;;;;56.83;22.02;;;1.10;99.90;;;;;;5053453;28;20069;-71
2023/01/20 12:23:51;;;;;;;51.15;22.65;;;1.10;99.90;;;;;;5056058;28;20351;-71
2023/01/20 12:26:20;;;;;;;51.30;21.60;;;1.10;99.90;;;;;;5034788;28;20052;-71
2023/01/20 12:29:13;;;;;;;55.38;21.60;;;1.20;99.90;;;;;;5050463;28;20735;-71
2023/01/20 12:31:39;;;;;;;49.38;21.70;;;1.20;99.90;;;;;;5046775;28;20036;-71
2023/01/20 12:34:12;;;;;;;52.07;20.37;;;1.20;99.90;;;;;;5050909;28;20067;-71
2023/01/20 12:36:43;;;;;;;49.55;21.20;;;1.10;99.90;;;;;;5035036;28;20044;-71
2023/01/20 12:39:31;;;;;;;53.67;20.90;;;1.10;99.90;;;;;;5050955;28;20048;-72
2023/01/20 12:42:08;;;;;;;45.67;19.77;;;1.10;99.90;;;;;;5057594;28;20072;-72
2023/01/20 12:44:37;;;;;;;53.55;19.98;;;1.20;99.90;;;;;;5054374;28;20059;-72
2023/01/20 12:47:32;;;;;;;51.95;20.50;;;1.20;99.90;;;;;;5053907;28;20049;-73
2023/01/20 12:50:25;;;;;;;48.35;20.60;;;1.20;99.90;;;;;;5048446;28;20053;-72
2023/01/20 12:53:01;;;;;;;48.70;19.73;;;1.20;99.90;;;;;;5053236;28;20082;-73
2023/01/20 12:55:32;;;;;;;48.33;19.27;;;1.20;99.90;;;;;;5058690;28;20084;-72
2023/01/20 12:58:07;;;;;;;47.60;19.52;;;1.20;99.90;;;;;;5033821;28;20048;-73
2023/01/20 13:00:50;;;;;;;44.63;19.55;;;1.20;99.90;;;;;;5051062;28;20133;-72
2023/01/20 13:03:41;;;;;;;42.95;19.33;;;1.20;99.90;;;;;;5052923;28;20056;-73